createdAt,value
2022-11-18T00:01:40.428Z,88.55
2022-11-18T00:04:08.522Z,88.40
2022-11-18T00:06:37.156Z,88.32
2022-11-18T00:09:06.474Z,88.54
2022-11-18T00:11:54.401Z,88.44
2022-11-18T00:14:27.765Z,88.01
2022-11-18T00:17:02.961Z,88.12
2022-11-18T00:19:32.720Z,88.07
2022-11-18T00:22:01.726Z,87.96
2022-11-18T00:24:30.018Z,88.15
2022-11-18T00:26:59.011Z,88.23
2022-11-18T00:29:28.764Z,88.06
2022-11-18T00:31:58.512Z,88.45
2022-11-18T00:34:27.154Z,88.26
2022-11-18T00:36:55.282Z,88.37
2022-11-18T00:39:24.261Z,88.08
2022-11-18T00:42:10.997Z,88.37
2022-11-18T00:44:39.066Z,88.22
2022-11-18T00:47:07.161Z,88.52
2022-11-18T00:49:35.281Z,88.46
2022-11-18T00:52:03.967Z,88.31
2022-11-18T00:54:32.060Z,88.46
2022-11-18T00:57:00.204Z,88.25
2022-11-18T00:59:28.303Z,88.43
2022-11-18T01:01:56.400Z,88.23
2022-11-18T01:04:24.408Z,88.38
2022-11-18T01:06:52.561Z,88.51
2022-11-18T01:09:20.602Z,88.44
2022-11-18T01:12:07.523Z,88.16
2022-11-18T01:14:35.601Z,88.44
2022-11-18T01:17:03.932Z,88.20
2022-11-18T01:19:32.084Z,88.43
2022-11-18T01:22:03.408Z,88.14
2022-11-18T01:24:33.831Z,88.37
2022-11-18T01:27:03.516Z,88.50
2022-11-18T01:29:31.969Z,88.26
2022-11-18T01:34:48.125Z,88.44
2022-11-18T01:37:16.303Z,88.55
2022-11-18T01:39:44.572Z,88.24
2022-11-18T01:42:16.326Z,88.41
2022-11-18T01:44:56.756Z,88.25
2022-11-18T01:47:29.207Z,88.50
2022-11-18T01:50:00.773Z,88.31
2022-11-18T01:52:31.484Z,88.40
2022-11-18T01:55:07.726Z,88.69
2022-11-18T01:57:35.875Z,88.38
2022-11-18T02:00:06.856Z,88.57
2022-11-18T02:02:37.731Z,88.20
2022-11-18T02:05:08.751Z,88.57
2022-11-18T02:07:42.158Z,88.45
2022-11-18T02:10:23.803Z,88.22
2022-11-18T02:12:53.562Z,88.32
2022-11-18T02:15:34.324Z,88.12
2022-11-18T02:18:15.444Z,87.99
2022-11-18T02:20:47.253Z,88.12
2022-11-18T02:23:37.160Z,87.96
2022-11-18T02:26:32.829Z,87.76
2022-11-18T02:29:15.796Z,87.86
2022-11-18T02:32:04.620Z,87.94
2022-11-18T02:34:41.109Z,88.04
2022-11-18T02:37:22.580Z,87.96
2022-11-18T02:40:23.544Z,87.86
2022-11-18T02:42:58.669Z,87.53
2022-11-18T02:45:28.469Z,87.88
2022-11-18T02:47:58.966Z,87.71
2022-11-18T02:50:30.513Z,87.61
2022-11-18T02:53:03.389Z,87.47
2022-11-18T02:55:34.924Z,87.66
2022-11-18T02:58:05.463Z,87.36
2022-11-18T03:00:33.855Z,87.08
2022-11-18T03:03:35.189Z,87.07
2022-11-18T03:06:07.663Z,86.93
2022-11-18T03:08:50.382Z,87.24
2022-11-18T03:11:24.151Z,87.23
2022-11-18T03:14:22.057Z,87.47
2022-11-18T03:16:58.700Z,87.41
2022-11-18T03:19:55.688Z,87.50
2022-11-18T03:22:38.105Z,87.61
2022-11-18T03:25:08.961Z,87.21
2022-11-18T03:27:47.394Z,87.33
2022-11-18T03:30:19.404Z,87.44
2022-11-18T03:32:57.907Z,87.52
2022-11-18T03:35:28.862Z,87.48
2022-11-18T03:38:05.874Z,87.60
2022-11-18T03:40:39.751Z,87.31
2022-11-18T03:43:19.177Z,87.50
2022-11-18T03:46:09.168Z,87.84
2022-11-18T03:48:59.243Z,87.53
2022-11-18T03:51:54.024Z,87.84
2022-11-18T03:54:30.098Z,87.89
2022-11-18T03:57:01.985Z,87.87
2022-11-18T03:59:44.534Z,88.04
2022-11-18T04:02:26.006Z,87.69
2022-11-18T04:04:58.182Z,87.97
2022-11-18T04:07:51.215Z,87.71
2022-11-18T04:10:23.701Z,87.69
2022-11-18T04:13:13.378Z,87.75
2022-11-18T04:15:42.499Z,87.78
2022-11-18T04:18:11.365Z,87.89
2022-11-18T04:20:39.893Z,88.11
2022-11-18T04:23:08.777Z,87.50
2022-11-18T04:25:37.587Z,87.78
2022-11-18T04:28:06.141Z,87.56
2022-11-18T04:30:34.494Z,87.52
2022-11-18T04:33:02.601Z,87.58
2022-11-18T04:35:31.062Z,87.68
2022-11-18T04:37:59.117Z,87.52
2022-11-18T04:40:27.741Z,87.77
2022-11-18T04:42:55.825Z,87.89
2022-11-18T04:45:23.883Z,87.99
2022-11-18T04:47:51.972Z,88.06
2022-11-18T04:50:20.483Z,88.17
2022-11-18T04:52:48.511Z,87.76
2022-11-18T04:55:16.519Z,88.04
2022-11-18T04:57:45.483Z,87.93
2022-11-18T05:00:14.003Z,87.91
2022-11-18T05:02:42.075Z,87.95
2022-11-18T05:05:10.622Z,87.93
2022-11-18T05:07:39.273Z,88.03
2022-11-18T05:10:08.180Z,87.79
2022-11-18T05:12:52.832Z,88.17
2022-11-18T05:15:24.117Z,87.98
2022-11-18T05:17:52.561Z,87.91
2022-11-18T05:20:20.818Z,88.02
2022-11-18T05:22:48.864Z,87.98
2022-11-18T05:25:16.997Z,87.78
2022-11-18T05:27:45.078Z,87.99
2022-11-18T05:30:14.218Z,88.03
2022-11-18T05:32:42.721Z,87.98
2022-11-18T05:35:11.404Z,87.89
2022-11-18T05:37:39.941Z,87.88
2022-11-18T05:40:09.101Z,88.18
2022-11-18T05:42:56.766Z,87.91
2022-11-18T05:45:24.815Z,88.14
2022-11-18T05:48:04.999Z,87.63
2022-11-18T05:50:36.389Z,87.99
2022-11-18T05:53:04.677Z,87.42
2022-11-18T05:55:42.386Z,87.60
2022-11-18T05:58:10.476Z,87.34
2022-11-18T06:00:38.857Z,87.36
2022-11-18T06:03:19.322Z,87.16
2022-11-18T06:05:48.703Z,87.04
2022-11-18T06:08:18.918Z,86.40
2022-11-18T06:10:49.208Z,85.98
2022-11-18T06:13:23.173Z,86.14
2022-11-18T06:15:51.518Z,86.05
2022-11-18T06:18:23.598Z,85.97
2022-11-18T06:20:59.983Z,85.23
2022-11-18T06:23:30.777Z,85.43
2022-11-18T06:25:58.838Z,85.48
2022-11-18T06:28:28.137Z,85.08
2022-11-18T06:30:56.589Z,85.08
2022-11-18T06:33:25.073Z,84.41
2022-11-18T06:35:53.179Z,84.27
2022-11-18T06:38:24.859Z,84.18
2022-11-18T06:40:52.991Z,83.43
2022-11-18T06:43:39.395Z,83.63
2022-11-18T06:46:35.460Z,83.40
2022-11-18T06:49:03.934Z,83.35
2022-11-18T06:51:32.017Z,82.90
2022-11-18T06:54:02.722Z,82.80
2022-11-18T06:56:36.248Z,82.51
2022-11-18T06:59:05.518Z,82.50
2022-11-18T07:01:39.915Z,82.32
2022-11-18T07:04:08.652Z,82.48
2022-11-18T07:06:37.604Z,81.98
2022-11-18T07:09:07.503Z,81.63
2022-11-18T07:11:36.220Z,81.32
2022-11-18T07:14:04.374Z,81.23
2022-11-18T07:16:36.133Z,81.48
2022-11-18T07:19:14.322Z,81.70
2022-11-18T07:21:45.341Z,81.39
2022-11-18T07:24:15.742Z,80.89
2022-11-18T07:26:44.261Z,81.05
2022-11-18T07:29:12.540Z,80.76
2022-11-18T07:31:41.130Z,81.04
2022-11-18T07:34:09.354Z,81.57
2022-11-18T07:36:37.569Z,81.14
2022-11-18T07:39:07.211Z,80.76
2022-11-18T07:41:36.694Z,80.99
2022-11-18T07:44:06.572Z,80.82
2022-11-18T07:46:37.639Z,81.35
2022-11-18T07:49:09.354Z,81.36
2022-11-18T07:51:39.800Z,80.90
2022-11-18T07:54:14.113Z,80.80
2022-11-18T07:56:43.009Z,80.73
2022-11-18T07:59:11.926Z,80.44
2022-11-18T08:01:40.255Z,80.14
2022-11-18T08:04:12.138Z,80.11
2022-11-18T08:06:40.539Z,80.00
2022-11-18T08:09:09.419Z,80.14
2022-11-18T08:11:37.675Z,79.71
2022-11-18T08:14:05.812Z,79.52
2022-11-18T08:16:35.336Z,79.75
2022-11-18T08:19:03.713Z,79.73
2022-11-18T08:21:32.025Z,79.77
2022-11-18T08:24:00.371Z,79.62
2022-11-18T08:26:29.859Z,79.47
2022-11-18T08:28:58.713Z,78.99
2022-11-18T08:31:30.671Z,78.50
2022-11-18T08:34:04.546Z,78.73
2022-11-18T08:36:35.369Z,78.16
2022-11-18T08:39:07.278Z,78.44
2022-11-18T08:41:41.315Z,78.20
2022-11-18T08:44:14.909Z,78.12
2022-11-18T08:46:47.544Z,78.38
2022-11-18T08:49:16.134Z,78.22
2022-11-18T08:51:44.566Z,77.69
2022-11-18T08:54:13.318Z,78.08
2022-11-18T08:56:41.418Z,78.12
2022-11-18T08:59:10.115Z,78.23
2022-11-18T09:01:41.908Z,77.91
2022-11-18T09:04:11.826Z,78.47
2022-11-18T09:06:40.623Z,78.60
2022-11-18T09:09:09.144Z,78.11
2022-11-18T09:11:39.600Z,78.35
2022-11-18T09:16:59.745Z,78.25
2022-11-18T09:22:19.328Z,78.44
2022-11-18T09:24:47.405Z,78.58
2022-11-18T09:27:17.546Z,78.53
2022-11-18T09:29:47.566Z,78.71
2022-11-18T09:32:16.518Z,78.08
2022-11-18T09:34:44.732Z,78.54
2022-11-18T09:37:14.365Z,78.40
2022-11-18T09:39:42.732Z,78.65
2022-11-18T09:42:48.509Z,78.17
2022-11-18T09:45:32.563Z,78.58
2022-11-18T09:48:14.915Z,78.64
2022-11-18T09:50:49.618Z,78.69
2022-11-18T09:53:24.820Z,78.33
2022-11-18T09:55:54.891Z,78.35
2022-11-18T09:58:33.024Z,78.46
2022-11-18T10:01:04.945Z,78.56
2022-11-18T10:03:34.129Z,78.66
2022-11-18T10:06:23.741Z,78.44
2022-11-18T10:09:11.344Z,78.65
2022-11-18T10:12:10.649Z,78.40
2022-11-18T10:14:42.479Z,78.59
2022-11-18T10:17:29.145Z,78.43
2022-11-18T10:20:11.601Z,78.71
2022-11-18T10:22:49.128Z,78.83
2022-11-18T10:25:19.208Z,78.93
2022-11-18T10:27:50.066Z,78.95
2022-11-18T10:30:24.711Z,79.48
2022-11-18T10:33:17.246Z,79.30
2022-11-18T10:35:45.828Z,79.40
2022-11-18T10:38:14.128Z,79.83
2022-11-18T10:41:21.823Z,80.23
2022-11-18T10:43:53.389Z,80.52
2022-11-18T10:46:25.997Z,80.58
2022-11-18T10:49:09.985Z,80.78
2022-11-18T10:51:39.914Z,80.98
2022-11-18T10:54:14.615Z,81.04
2022-11-18T10:56:50.223Z,81.01
2022-11-18T10:59:31.749Z,80.84
2022-11-18T11:02:26.552Z,81.48
2022-11-18T11:04:54.764Z,80.74
2022-11-18T11:07:35.251Z,80.84
2022-11-18T11:10:15.889Z,80.61
2022-11-18T11:13:00.473Z,80.66
2022-11-18T11:15:37.676Z,80.81
2022-11-18T11:18:37.570Z,80.82
2022-11-18T11:21:22.884Z,80.68
2022-11-18T11:23:51.751Z,80.61
2022-11-18T11:29:34.547Z,80.60
2022-11-18T11:32:27.487Z,80.72
2022-11-18T11:35:05.224Z,80.47
2022-11-18T11:37:54.037Z,80.55
2022-11-18T11:40:45.815Z,80.65
2022-11-18T11:43:23.468Z,80.90
2022-11-18T11:46:20.254Z,80.44
2022-11-18T11:48:48.638Z,79.71
2022-11-18T11:51:28.198Z,79.82
2022-11-18T11:54:21.141Z,79.61
2022-11-18T11:57:07.278Z,79.02
2022-11-18T12:00:24.849Z,78.72
2022-11-18T12:03:11.738Z,78.32
2022-11-18T12:05:43.537Z,77.82
2022-11-18T12:08:20.719Z,77.69
2022-11-18T12:10:58.629Z,77.72
2022-11-18T12:13:48.911Z,77.62
2022-11-18T12:16:34.001Z,77.64
2022-11-18T12:19:11.907Z,77.71
2022-11-18T12:21:46.901Z,77.58
2022-11-18T12:24:27.628Z,77.23
2022-11-18T12:26:56.285Z,77.45
2022-11-18T12:29:27.793Z,77.67
2022-11-18T12:32:00.140Z,77.48
2022-11-18T12:34:45.139Z,77.55
2022-11-18T12:37:25.782Z,77.41
2022-11-18T12:39:58.525Z,77.45
2022-11-18T12:42:58.460Z,77.42
2022-11-18T12:45:42.637Z,77.34
2022-11-18T12:48:50.255Z,76.81
2022-11-18T12:51:19.471Z,76.39
2022-11-18T12:53:49.656Z,76.12
2022-11-18T12:56:18.827Z,76.03
2022-11-18T12:58:47.063Z,75.72
2022-11-18T13:01:19.516Z,75.37
2022-11-18T13:03:48.285Z,75.32
2022-11-18T13:06:19.466Z,75.59
2022-11-18T13:08:56.991Z,75.33
2022-11-18T13:11:47.218Z,74.95
2022-11-18T13:14:46.321Z,74.53
2022-11-18T13:17:49.357Z,74.21
2022-11-18T13:20:21.745Z,73.89
2022-11-18T13:23:14.694Z,73.77
2022-11-18T13:25:46.022Z,74.24
2022-11-18T13:28:40.378Z,73.89
2022-11-18T13:31:32.204Z,73.83
2022-11-18T13:34:12.401Z,73.39
2022-11-18T13:36:46.699Z,73.42
2022-11-18T13:39:24.101Z,73.44
2022-11-18T13:42:05.190Z,72.00
2022-11-18T13:44:37.071Z,71.93
2022-11-18T13:47:13.500Z,70.95
2022-11-18T13:50:00.290Z,70.32
2022-11-18T13:52:34.362Z,69.99
2022-11-18T13:55:09.601Z,70.02
2022-11-18T13:57:37.998Z,70.06
2022-11-18T14:00:19.846Z,69.59
2022-11-18T14:02:59.465Z,69.50
2022-11-18T14:05:28.854Z,69.95
2022-11-18T14:07:57.056Z,70.19
2022-11-18T14:10:44.248Z,70.28
2022-11-18T14:13:22.877Z,70.16
2022-11-18T14:15:51.270Z,70.25
2022-11-18T14:18:45.881Z,69.92
2022-11-18T14:21:14.835Z,70.18
2022-11-18T14:23:44.601Z,69.70
2022-11-18T14:26:12.881Z,70.04
2022-11-18T14:28:55.002Z,70.07
2022-11-18T14:31:27.744Z,69.93
2022-11-18T14:34:25.982Z,70.01
2022-11-18T14:36:56.094Z,69.79
2022-11-18T14:39:30.248Z,69.80
2022-11-18T14:41:59.158Z,69.81
2022-11-18T14:44:28.531Z,69.77
2022-11-18T14:47:03.046Z,69.64
2022-11-18T14:49:32.987Z,69.48
2022-11-18T14:52:03.056Z,69.75
2022-11-18T14:54:31.945Z,69.29
2022-11-18T14:57:03.234Z,69.65
2022-11-18T14:59:31.721Z,69.62
2022-11-18T15:02:00.296Z,69.59
2022-11-18T15:04:28.861Z,69.59
2022-11-18T15:06:59.080Z,69.62
2022-11-18T15:09:29.297Z,70.06
2022-11-18T15:11:57.891Z,69.77
2022-11-18T15:14:26.356Z,70.16
2022-11-18T15:16:56.278Z,69.77
2022-11-18T15:19:32.140Z,70.12
2022-11-18T15:22:02.335Z,70.48
2022-11-18T15:24:32.774Z,70.52
2022-11-18T15:27:05.509Z,70.77
2022-11-18T15:29:35.563Z,70.71
2022-11-18T15:32:05.698Z,71.31
2022-11-18T15:34:34.185Z,70.93
2022-11-18T15:37:02.582Z,71.06
2022-11-18T15:39:30.909Z,71.19
2022-11-18T15:42:00.844Z,71.30
2022-11-18T15:44:29.301Z,71.39
2022-11-18T15:47:04.032Z,71.63
2022-11-18T15:49:32.626Z,71.45
2022-11-18T15:52:01.640Z,71.63
2022-11-18T15:54:30.531Z,71.37
2022-11-18T15:57:00.843Z,71.80
2022-11-18T15:59:30.544Z,71.96
2022-11-18T16:02:00.570Z,71.67
2022-11-18T16:04:29.341Z,71.82
2022-11-18T16:07:00.561Z,72.14
2022-11-18T16:09:50.978Z,71.88
2022-11-18T16:12:38.665Z,72.36
2022-11-18T16:15:26.308Z,72.13
2022-11-18T16:17:55.996Z,72.04
2022-11-18T16:20:25.748Z,72.49
2022-11-18T16:22:56.678Z,72.38
2022-11-18T16:25:28.606Z,72.64
2022-11-18T16:27:59.606Z,72.68
2022-11-18T16:30:55.560Z,73.06
2022-11-18T16:33:25.707Z,72.92
2022-11-18T16:35:55.371Z,73.01
2022-11-18T16:38:26.739Z,72.85
2022-11-18T16:40:59.284Z,73.22
2022-11-18T16:43:34.830Z,73.50
2022-11-18T16:46:07.756Z,73.56
2022-11-18T16:48:39.961Z,73.44
2022-11-18T16:51:22.485Z,73.64
2022-11-18T16:54:01.875Z,73.68
2022-11-18T16:56:33.766Z,73.95
2022-11-18T16:59:07.747Z,74.06
2022-11-18T17:01:39.394Z,73.84
2022-11-18T17:04:08.480Z,73.64
2022-11-18T17:06:38.682Z,74.17
2022-11-18T17:09:13.622Z,73.99
2022-11-18T17:11:42.661Z,74.11
2022-11-18T17:14:13.340Z,73.90
2022-11-18T17:16:43.519Z,74.24
2022-11-18T17:19:18.137Z,74.23
2022-11-18T17:21:48.050Z,74.66
2022-11-18T17:24:22.101Z,74.30
2022-11-18T17:26:53.032Z,74.65
2022-11-18T17:29:22.260Z,74.43
2022-11-18T17:31:51.947Z,74.96
2022-11-18T17:34:21.924Z,74.89
2022-11-18T17:36:52.005Z,74.72
2022-11-18T17:39:24.666Z,74.76
2022-11-18T17:42:12.049Z,75.12
2022-11-18T17:44:40.884Z,75.07
2022-11-18T17:47:10.679Z,75.01
2022-11-18T17:49:39.638Z,75.21
2022-11-18T17:52:10.976Z,75.28
2022-11-18T17:54:40.044Z,75.26
2022-11-18T17:57:10.597Z,75.20
2022-11-18T17:59:40.742Z,75.29
2022-11-18T18:02:14.408Z,75.45
2022-11-18T18:04:47.198Z,75.44
2022-11-18T18:07:17.502Z,75.67
2022-11-18T18:09:47.083Z,75.54
2022-11-18T18:12:34.593Z,75.49
2022-11-18T18:15:04.271Z,75.76
2022-11-18T18:17:34.300Z,75.66
2022-11-18T18:20:02.892Z,75.56
2022-11-18T18:22:31.540Z,75.67
2022-11-18T18:24:59.961Z,75.79
2022-11-18T18:27:31.764Z,75.68
2022-11-18T18:30:01.338Z,76.06
2022-11-18T18:32:32.432Z,75.94
2022-11-18T18:35:02.292Z,75.87
2022-11-18T18:37:30.902Z,75.71
2022-11-18T18:39:59.778Z,75.79
2022-11-18T18:42:28.620Z,75.89
2022-11-18T18:45:16.186Z,75.73
2022-11-18T18:47:46.623Z,75.51
2022-11-18T18:50:16.796Z,75.89
2022-11-18T18:52:47.741Z,75.66
2022-11-18T18:55:18.250Z,75.85
2022-11-18T18:57:46.782Z,75.93
2022-11-18T19:00:18.137Z,76.00
2022-11-18T19:02:47.388Z,76.12
2022-11-18T19:05:18.176Z,76.11
2022-11-18T19:07:47.368Z,76.06
2022-11-18T19:10:17.619Z,75.97
2022-11-18T19:12:52.449Z,75.83
2022-11-18T19:15:23.518Z,75.85
2022-11-18T19:17:54.897Z,76.12
2022-11-18T19:20:35.182Z,76.10
2022-11-18T19:23:10.505Z,76.30
2022-11-18T19:25:45.159Z,76.26
2022-11-18T19:28:16.551Z,76.54
2022-11-18T19:30:46.571Z,76.19
2022-11-18T19:33:15.398Z,76.19
2022-11-18T19:35:43.787Z,76.31
2022-11-18T19:38:13.398Z,75.95
2022-11-18T19:40:44.936Z,76.23
2022-11-18T19:43:15.755Z,76.47
2022-11-18T19:45:51.334Z,76.38
2022-11-18T19:48:20.007Z,76.12
2022-11-18T19:50:50.314Z,76.16
2022-11-18T19:53:35.840Z,76.29
2022-11-18T19:56:07.118Z,76.15
2022-11-18T19:58:36.591Z,76.17
2022-11-18T20:01:24.630Z,76.10
2022-11-18T20:03:56.568Z,76.20
2022-11-18T20:06:27.564Z,76.20
2022-11-18T20:08:57.825Z,76.09
2022-11-18T20:11:30.278Z,76.13
2022-11-18T20:14:01.999Z,76.08
2022-11-18T20:16:33.703Z,76.41
2022-11-18T20:19:10.719Z,76.06
2022-11-18T20:21:44.356Z,76.27
2022-11-18T20:24:19.675Z,76.30
2022-11-18T20:26:51.128Z,75.93
2022-11-18T20:29:21.497Z,76.41
2022-11-18T20:31:51.598Z,76.12
2022-11-18T20:34:20.418Z,76.17
2022-11-18T20:36:52.221Z,76.45
2022-11-18T20:39:21.109Z,76.30
2022-11-18T20:42:09.979Z,76.14
2022-11-18T20:44:39.494Z,76.39
2022-11-18T20:47:08.375Z,76.43
2022-11-18T20:49:39.098Z,76.92
2022-11-18T20:52:08.324Z,76.65
2022-11-18T20:54:36.936Z,76.79
2022-11-18T20:57:07.181Z,76.86
2022-11-18T20:59:35.601Z,76.76
2022-11-18T21:02:04.059Z,76.59
2022-11-18T21:04:32.795Z,77.00
2022-11-18T21:07:02.192Z,77.16
2022-11-18T21:09:33.878Z,77.28
2022-11-18T21:12:03.293Z,77.20
2022-11-18T21:14:34.126Z,77.10
2022-11-18T21:17:06.942Z,77.32
2022-11-18T21:19:35.534Z,77.24
2022-11-18T21:22:04.975Z,77.42
2022-11-18T21:24:36.072Z,77.45
2022-11-18T21:27:06.309Z,77.13
2022-11-18T21:29:35.099Z,77.37
2022-11-18T21:32:04.118Z,77.94
2022-11-18T21:34:32.652Z,77.54
2022-11-18T21:37:05.665Z,78.07
2022-11-18T21:39:35.052Z,77.96
2022-11-18T21:42:04.007Z,78.10
2022-11-18T21:44:32.347Z,77.95
2022-11-18T21:47:01.074Z,78.31
2022-11-18T21:49:29.816Z,78.15
2022-11-18T21:51:58.532Z,78.44
2022-11-18T21:54:26.966Z,78.62
2022-11-18T21:56:55.671Z,78.65
2022-11-18T21:59:24.791Z,78.73
2022-11-18T22:01:53.618Z,78.66
2022-11-18T22:04:41.301Z,79.09
2022-11-18T22:07:10.193Z,78.77
2022-11-18T22:09:39.989Z,79.04
2022-11-18T22:12:09.579Z,78.63
2022-11-18T22:14:39.349Z,79.06
2022-11-18T22:17:07.715Z,78.94
2022-11-18T22:19:36.810Z,79.09
2022-11-18T22:22:05.326Z,79.16
2022-11-18T22:24:33.522Z,79.25
2022-11-18T22:27:03.765Z,79.53
2022-11-18T22:29:34.366Z,79.08
2022-11-18T22:32:03.776Z,79.19
2022-11-18T22:34:33.808Z,79.29
2022-11-18T22:37:02.003Z,79.46
2022-11-18T22:39:30.162Z,79.19
2022-11-18T22:42:17.749Z,78.87
2022-11-18T22:44:45.921Z,79.28
2022-11-18T22:47:14.246Z,79.25
2022-11-18T22:49:42.560Z,79.24
2022-11-18T22:52:11.156Z,79.19
2022-11-18T22:54:40.207Z,79.07
2022-11-18T22:57:09.097Z,79.37
2022-11-18T22:59:37.376Z,79.18
2022-11-18T23:02:06.203Z,79.22
2022-11-18T23:04:35.186Z,79.42
2022-11-18T23:07:03.501Z,79.20
2022-11-18T23:09:31.747Z,79.14
2022-11-18T23:12:18.410Z,79.13
2022-11-18T23:14:47.060Z,79.22
2022-11-18T23:17:16.310Z,79.63
2022-11-18T23:19:44.716Z,79.49
2022-11-18T23:22:14.178Z,79.56
2022-11-18T23:24:42.355Z,79.75
2022-11-18T23:27:10.995Z,79.63
2022-11-18T23:29:40.058Z,79.29
2022-11-18T23:32:08.570Z,79.61
2022-11-18T23:34:36.755Z,79.43
2022-11-18T23:37:05.338Z,79.67
2022-11-18T23:39:34.830Z,79.84
2022-11-18T23:42:03.009Z,79.60
2022-11-18T23:44:46.687Z,79.72
2022-11-18T23:47:15.451Z,79.53
2022-11-18T23:49:43.803Z,79.58
2022-11-18T23:52:13.094Z,79.54
2022-11-18T23:54:41.138Z,79.34
2022-11-18T23:57:09.534Z,79.36
2022-11-18T23:59:37.713Z,79.77
